sensor_id;sensor_type;location;lat;lon;timestamp;pressure;altitude;pressure_sealevel;temperature;humidity
5755;BME280;2902;42.130;24.732;2023-05-11T00:01:02;99956.44;;;11.40;85.43
5755;BME280;2902;42.130;24.732;2023-05-11T00:03:29;99954.84;;;11.46;85.39
5755;BME280;2902;42.130;24.732;2023-05-11T00:05:55;99961.53;;;11.42;85.86
5755;BME280;2902;42.130;24.732;2023-05-11T00:08:22;99957.59;;;11.52;85.44
5755;BME280;2902;42.130;24.732;2023-05-11T00:10:49;99961.88;;;11.53;85.09
5755;BME280;2902;42.130;24.732;2023-05-11T00:13:16;99958.81;;;11.56;85.02
5755;BME280;2902;42.130;24.732;2023-05-11T00:15:44;99972.00;;;11.43;85.05
5755;BME280;2902;42.130;24.732;2023-05-11T00:18:11;99957.91;;;11.22;86.45
5755;BME280;2902;42.130;24.732;2023-05-11T00:20:38;99972.06;;;11.29;86.64
5755;BME280;2902;42.130;24.732;2023-05-11T00:23:04;99972.66;;;11.24;86.88
5755;BME280;2902;42.130;24.732;2023-05-11T00:25:31;99970.25;;;10.93;87.62
5755;BME280;2902;42.130;24.732;2023-05-11T00:27:58;99978.84;;;10.95;88.30
5755;BME280;2902;42.130;24.732;2023-05-11T00:30:24;99974.81;;;10.99;88.55
5755;BME280;2902;42.130;24.732;2023-05-11T00:32:52;99974.38;;;10.96;88.51
5755;BME280;2902;42.130;24.732;2023-05-11T00:35:19;99973.25;;;11.05;88.71
5755;BME280;2902;42.130;24.732;2023-05-11T00:37:46;99978.19;;;11.08;88.09
5755;BME280;2902;42.130;24.732;2023-05-11T00:40:13;99976.16;;;11.10;87.83
5755;BME280;2902;42.130;24.732;2023-05-11T00:42:39;99972.41;;;11.04;88.39
5755;BME280;2902;42.130;24.732;2023-05-11T00:45:07;99977.84;;;10.82;89.32
5755;BME280;2902;42.130;24.732;2023-05-11T00:47:33;99971.25;;;10.78;89.26
5755;BME280;2902;42.130;24.732;2023-05-11T00:50:02;99978.50;;;10.84;90.00
5755;BME280;2902;42.130;24.732;2023-05-11T00:52:28;99976.56;;;10.78;89.15
5755;BME280;2902;42.130;24.732;2023-05-11T00:54:55;99975.50;;;10.87;89.82
5755;BME280;2902;42.130;24.732;2023-05-11T00:57:22;99977.13;;;10.88;89.83
5755;BME280;2902;42.130;24.732;2023-05-11T00:59:49;99973.81;;;10.86;89.28
5755;BME280;2902;42.130;24.732;2023-05-11T01:02:15;99958.72;;;10.86;89.29
5755;BME280;2902;42.130;24.732;2023-05-11T01:04:43;99971.22;;;10.92;89.02
5755;BME280;2902;42.130;24.732;2023-05-11T01:07:16;99977.41;;;10.78;89.80
5755;BME280;2902;42.130;24.732;2023-05-11T01:09:53;99967.50;;;10.87;89.44
5755;BME280;2902;42.130;24.732;2023-05-11T01:12:26;99973.91;;;10.92;89.30
5755;BME280;2902;42.130;24.732;2023-05-11T01:14:59;99977.22;;;10.80;90.00
5755;BME280;2902;42.130;24.732;2023-05-11T01:17:35;99975.66;;;10.85;90.06
5755;BME280;2902;42.130;24.732;2023-05-11T01:20:06;99980.81;;;10.87;89.86
5755;BME280;2902;42.130;24.732;2023-05-11T01:22:47;99985.84;;;10.67;90.01
5755;BME280;2902;42.130;24.732;2023-05-11T01:25:31;99977.59;;;10.62;91.06
5755;BME280;2902;42.130;24.732;2023-05-11T01:28:22;99984.13;;;10.60;90.97
5755;BME280;2902;42.130;24.732;2023-05-11T01:30:53;99983.94;;;10.32;92.79
5755;BME280;2902;42.130;24.732;2023-05-11T01:33:25;99984.88;;;10.54;92.28
5755;BME280;2902;42.130;24.732;2023-05-11T01:36:00;99990.97;;;10.54;91.55
5755;BME280;2902;42.130;24.732;2023-05-11T01:38:31;99987.44;;;10.62;91.68
5755;BME280;2902;42.130;24.732;2023-05-11T01:41:00;99982.38;;;10.67;91.91
5755;BME280;2902;42.130;24.732;2023-05-11T01:43:29;99974.50;;;10.59;91.48
5755;BME280;2902;42.130;24.732;2023-05-11T01:45:59;99987.03;;;10.65;92.36
5755;BME280;2902;42.130;24.732;2023-05-11T01:48:28;99977.34;;;10.72;91.85
5755;BME280;2902;42.130;24.732;2023-05-11T01:50:59;99977.59;;;10.77;91.44
5755;BME280;2902;42.130;24.732;2023-05-11T01:53:28;99975.69;;;10.71;91.24
5755;BME280;2902;42.130;24.732;2023-05-11T01:55:58;99979.72;;;10.38;93.33
5755;BME280;2902;42.130;24.732;2023-05-11T01:58:27;99979.56;;;10.54;92.67
5755;BME280;2902;42.130;24.732;2023-05-11T02:00:54;99979.25;;;10.49;92.48
5755;BME280;2902;42.130;24.732;2023-05-11T02:03:24;99974.59;;;10.36;93.34
5755;BME280;2902;42.130;24.732;2023-05-11T02:05:53;99970.47;;;10.19;93.96
5755;BME280;2902;42.130;24.732;2023-05-11T02:08:21;99973.22;;;10.26;94.74
5755;BME280;2902;42.130;24.732;2023-05-11T02:10:49;99975.88;;;10.40;94.08
5755;BME280;2902;42.130;24.732;2023-05-11T02:13:17;99970.09;;;10.51;93.34
5755;BME280;2902;42.130;24.732;2023-05-11T02:15:45;99973.13;;;10.48;93.20
5755;BME280;2902;42.130;24.732;2023-05-11T02:18:14;99980.34;;;10.54;93.00
5755;BME280;2902;42.130;24.732;2023-05-11T02:20:44;99979.25;;;10.63;93.10
5755;BME280;2902;42.130;24.732;2023-05-11T02:23:11;99974.41;;;10.67;93.00
5755;BME280;2902;42.130;24.732;2023-05-11T02:25:39;99979.16;;;10.57;92.82
5755;BME280;2902;42.130;24.732;2023-05-11T02:28:07;99983.19;;;10.53;93.37
5755;BME280;2902;42.130;24.732;2023-05-11T02:30:38;99966.81;;;10.64;92.99
5755;BME280;2902;42.130;24.732;2023-05-11T02:33:07;99976.81;;;10.62;93.33
5755;BME280;2902;42.130;24.732;2023-05-11T02:35:37;99978.97;;;10.73;92.78
5755;BME280;2902;42.130;24.732;2023-05-11T02:38:09;99975.84;;;10.84;92.54
5755;BME280;2902;42.130;24.732;2023-05-11T02:40:40;99976.41;;;10.65;92.20
5755;BME280;2902;42.130;24.732;2023-05-11T02:43:10;99959.84;;;10.48;92.79
5755;BME280;2902;42.130;24.732;2023-05-11T02:45:41;99973.69;;;10.44;93.68
5755;BME280;2902;42.130;24.732;2023-05-11T02:48:11;99980.19;;;10.41;93.42
5755;BME280;2902;42.130;24.732;2023-05-11T02:50:41;99981.56;;;10.52;93.12
5755;BME280;2902;42.130;24.732;2023-05-11T02:53:13;99982.66;;;10.43;93.05
5755;BME280;2902;42.130;24.732;2023-05-11T02:55:40;99992.09;;;10.60;93.67
5755;BME280;2902;42.130;24.732;2023-05-11T02:58:07;99990.25;;;10.60;93.19
5755;BME280;2902;42.130;24.732;2023-05-11T03:00:34;99998.94;;;10.69;92.84
5755;BME280;2902;42.130;24.732;2023-05-11T03:03:02;99990.88;;;10.77;93.10
5755;BME280;2902;42.130;24.732;2023-05-11T03:05:29;99990.50;;;10.80;92.86
5755;BME280;2902;42.130;24.732;2023-05-11T03:07:57;100002.88;;;10.87;92.79
5755;BME280;2902;42.130;24.732;2023-05-11T03:10:26;99994.78;;;10.95;92.26
5755;BME280;2902;42.130;24.732;2023-05-11T03:12:53;99997.66;;;10.50;92.21
5755;BME280;2902;42.130;24.732;2023-05-11T03:15:21;99994.75;;;10.60;92.88
5755;BME280;2902;42.130;24.732;2023-05-11T03:17:48;99994.09;;;10.72;92.79
5755;BME280;2902;42.130;24.732;2023-05-11T03:20:16;100004.34;;;10.61;92.61
5755;BME280;2902;42.130;24.732;2023-05-11T03:22:45;99990.25;;;10.60;92.32
5755;BME280;2902;42.130;24.732;2023-05-11T03:25:13;99996.56;;;10.45;92.58
5755;BME280;2902;42.130;24.732;2023-05-11T03:27:42;99999.59;;;10.42;93.26
5755;BME280;2902;42.130;24.732;2023-05-11T03:30:13;99997.94;;;10.41;93.80
5755;BME280;2902;42.130;24.732;2023-05-11T03:32:39;100001.34;;;10.35;94.19
5755;BME280;2902;42.130;24.732;2023-05-11T03:35:07;99992.34;;;10.36;94.04
5755;BME280;2902;42.130;24.732;2023-05-11T03:37:35;100005.34;;;10.31;93.48
5755;BME280;2902;42.130;24.732;2023-05-11T03:40:03;100006.81;;;10.33;93.67
5755;BME280;2902;42.130;24.732;2023-05-11T03:42:32;100009.56;;;10.40;93.07
5755;BME280;2902;42.130;24.732;2023-05-11T03:45:02;100002.44;;;10.26;93.87
5755;BME280;2902;42.130;24.732;2023-05-11T03:47:31;100004.88;;;10.13;94.78
5755;BME280;2902;42.130;24.732;2023-05-11T03:49:59;99998.56;;;10.14;95.46
5755;BME280;2902;42.130;24.732;2023-05-11T03:52:27;99997.03;;;10.19;95.69
5755;BME280;2902;42.130;24.732;2023-05-11T03:54:55;100006.09;;;10.25;94.71
5755;BME280;2902;42.130;24.732;2023-05-11T03:57:24;100004.34;;;10.32;94.30
5755;BME280;2902;42.130;24.732;2023-05-11T03:59:51;99988.25;;;10.33;94.31
5755;BME280;2902;42.130;24.732;2023-05-11T04:02:19;100014.16;;;10.46;93.37
5755;BME280;2902;42.130;24.732;2023-05-11T04:04:48;100011.44;;;10.54;93.34
5755;BME280;2902;42.130;24.732;2023-05-11T04:07:15;100008.94;;;10.52;92.86
5755;BME280;2902;42.130;24.732;2023-05-11T04:09:42;100014.97;;;10.61;92.94
5755;BME280;2902;42.130;24.732;2023-05-11T04:12:08;100021.31;;;10.60;92.77
5755;BME280;2902;42.130;24.732;2023-05-11T04:14:35;100002.09;;;10.58;92.40
5755;BME280;2902;42.130;24.732;2023-05-11T04:17:02;100018.19;;;10.71;92.44
5755;BME280;2902;42.130;24.732;2023-05-11T04:19:30;100009.75;;;10.82;92.63
5755;BME280;2902;42.130;24.732;2023-05-11T04:21:57;100015.81;;;10.76;92.22
5755;BME280;2902;42.130;24.732;2023-05-11T04:24:23;100014.50;;;11.01;91.98
5755;BME280;2902;42.130;24.732;2023-05-11T04:26:54;100006.16;;;11.04;91.00
5755;BME280;2902;42.130;24.732;2023-05-11T04:29:21;100023.06;;;11.32;90.56
5755;BME280;2902;42.130;24.732;2023-05-11T04:31:48;100026.00;;;12.00;88.73
5755;BME280;2902;42.130;24.732;2023-05-11T04:34:15;100034.13;;;12.41;84.07
5755;BME280;2902;42.130;24.732;2023-05-11T04:36:46;100036.91;;;12.60;84.02
5755;BME280;2902;42.130;24.732;2023-05-11T04:39:12;100029.78;;;12.40;82.67
5755;BME280;2902;42.130;24.732;2023-05-11T04:41:40;100034.88;;;12.35;82.83
5755;BME280;2902;42.130;24.732;2023-05-11T04:44:07;100029.53;;;12.07;83.83
5755;BME280;2902;42.130;24.732;2023-05-11T04:46:33;100030.25;;;11.95;85.05
5755;BME280;2902;42.130;24.732;2023-05-11T04:49:01;100021.69;;;11.99;85.35
5755;BME280;2902;42.130;24.732;2023-05-11T04:51:28;100033.25;;;11.85;86.12
5755;BME280;2902;42.130;24.732;2023-05-11T04:53:56;100027.16;;;11.91;85.61
5755;BME280;2902;42.130;24.732;2023-05-11T04:56:23;100027.41;;;11.96;86.57
5755;BME280;2902;42.130;24.732;2023-05-11T04:58:50;100035.34;;;12.17;84.98
5755;BME280;2902;42.130;24.732;2023-05-11T05:01:17;100031.00;;;12.37;84.68
5755;BME280;2902;42.130;24.732;2023-05-11T05:03:47;100029.13;;;12.65;82.95
5755;BME280;2902;42.130;24.732;2023-05-11T05:06:13;100038.25;;;12.84;81.83
5755;BME280;2902;42.130;24.732;2023-05-11T05:08:40;100040.28;;;12.75;81.27
5755;BME280;2902;42.130;24.732;2023-05-11T05:11:08;100051.06;;;12.95;81.45
5755;BME280;2902;42.130;24.732;2023-05-11T05:13:35;100034.94;;;13.09;80.27
5755;BME280;2902;42.130;24.732;2023-05-11T05:16:02;100038.50;;;13.23;79.71
5755;BME280;2902;42.130;24.732;2023-05-11T05:18:29;100040.50;;;13.14;80.03
5755;BME280;2902;42.130;24.732;2023-05-11T05:20:55;100039.72;;;13.20;79.75
5755;BME280;2902;42.130;24.732;2023-05-11T05:23:22;100050.41;;;13.27;80.15
5755;BME280;2902;42.130;24.732;2023-05-11T05:25:49;100042.63;;;13.32;80.05
5755;BME280;2902;42.130;24.732;2023-05-11T05:28:17;100031.25;;;14.09;85.39
5755;BME280;2902;42.130;24.732;2023-05-11T05:30:44;100039.91;;;14.11;76.73
5755;BME280;2902;42.130;24.732;2023-05-11T05:33:11;100053.44;;;13.90;76.64
5755;BME280;2902;42.130;24.732;2023-05-11T05:35:38;100064.13;;;13.90;76.26
5755;BME280;2902;42.130;24.732;2023-05-11T05:38:04;100057.59;;;14.25;75.92
5755;BME280;2902;42.130;24.732;2023-05-11T05:40:31;100063.31;;;13.90;76.08
5755;BME280;2902;42.130;24.732;2023-05-11T05:43:01;100074.13;;;13.62;76.73
5755;BME280;2902;42.130;24.732;2023-05-11T05:45:29;100056.72;;;13.79;77.91
5755;BME280;2902;42.130;24.732;2023-05-11T05:47:56;100069.47;;;14.03;76.81
5755;BME280;2902;42.130;24.732;2023-05-11T05:50:24;100060.91;;;14.27;76.26
5755;BME280;2902;42.130;24.732;2023-05-11T05:52:51;100073.19;;;14.09;75.59
5755;BME280;2902;42.130;24.732;2023-05-11T05:55:18;100086.59;;;14.28;75.78
5755;BME280;2902;42.130;24.732;2023-05-11T05:57:45;100082.69;;;14.24;75.39
5755;BME280;2902;42.130;24.732;2023-05-11T06:00:12;100072.00;;;14.37;74.98
5755;BME280;2902;42.130;24.732;2023-05-11T06:02:40;100081.84;;;14.37;74.37
5755;BME280;2902;42.130;24.732;2023-05-11T06:05:08;100087.22;;;14.50;73.04
5755;BME280;2902;42.130;24.732;2023-05-11T06:07:35;100088.03;;;14.37;73.86
5755;BME280;2902;42.130;24.732;2023-05-11T06:10:02;100074.06;;;14.29;73.16
5755;BME280;2902;42.130;24.732;2023-05-11T06:12:29;100067.84;;;14.09;73.05
5755;BME280;2902;42.130;24.732;2023-05-11T06:14:55;100077.69;;;13.82;73.35
5755;BME280;2902;42.130;24.732;2023-05-11T06:17:22;100070.66;;;13.81;75.51
5755;BME280;2902;42.130;24.732;2023-05-11T06:19:50;100074.81;;;14.03;74.08
5755;BME280;2902;42.130;24.732;2023-05-11T06:22:17;100073.59;;;14.19;74.51
5755;BME280;2902;42.130;24.732;2023-05-11T06:24:44;100071.97;;;14.05;73.11
5755;BME280;2902;42.130;24.732;2023-05-11T06:27:11;100077.69;;;14.02;73.30
5755;BME280;2902;42.130;24.732;2023-05-11T06:29:38;100067.00;;;13.82;74.60
5755;BME280;2902;42.130;24.732;2023-05-11T06:32:06;100077.50;;;13.97;73.90
5755;BME280;2902;42.130;24.732;2023-05-11T06:34:33;100060.84;;;14.01;73.10
5755;BME280;2902;42.130;24.732;2023-05-11T06:37:01;100076.47;;;14.17;71.70
5755;BME280;2902;42.130;24.732;2023-05-11T06:39:28;100071.13;;;13.91;72.93
5755;BME280;2902;42.130;24.732;2023-05-11T06:41:55;100070.72;;;13.94;73.13
5755;BME280;2902;42.130;24.732;2023-05-11T06:44:21;100070.53;;;14.15;71.62
5755;BME280;2902;42.130;24.732;2023-05-11T06:46:48;100076.53;;;14.43;71.01
5755;BME280;2902;42.130;24.732;2023-05-11T06:49:15;100074.63;;;14.76;70.15
5755;BME280;2902;42.130;24.732;2023-05-11T06:51:41;100077.53;;;14.62;70.57
5755;BME280;2902;42.130;24.732;2023-05-11T06:54:10;100083.66;;;14.88;69.99
5755;BME280;2902;42.130;24.732;2023-05-11T06:56:36;100089.13;;;15.19;67.13
5755;BME280;2902;42.130;24.732;2023-05-11T06:59:03;100065.63;;;15.34;66.08
5755;BME280;2902;42.130;24.732;2023-05-11T07:01:30;100095.47;;;15.38;66.53
5755;BME280;2902;42.130;24.732;2023-05-11T07:03:57;100094.97;;;15.54;65.45
5755;BME280;2902;42.130;24.732;2023-05-11T07:06:24;100094.31;;;15.65;64.06
5755;BME280;2902;42.130;24.732;2023-05-11T07:08:50;100096.00;;;15.59;62.18
5755;BME280;2902;42.130;24.732;2023-05-11T07:11:18;100093.25;;;15.72;62.70
5755;BME280;2902;42.130;24.732;2023-05-11T07:13:46;100083.50;;;15.84;62.36
5755;BME280;2902;42.130;24.732;2023-05-11T07:16:12;100092.88;;;16.00;61.62
5755;BME280;2902;42.130;24.732;2023-05-11T07:18:39;100084.16;;;15.73;63.56
5755;BME280;2902;42.130;24.732;2023-05-11T07:21:06;100086.75;;;15.93;63.45
5755;BME280;2902;42.130;24.732;2023-05-11T07:23:33;100087.66;;;16.05;62.77
5755;BME280;2902;42.130;24.732;2023-05-11T07:25:59;100100.91;;;16.00;61.33
5755;BME280;2902;42.130;24.732;2023-05-11T07:28:29;100091.88;;;16.26;61.76
5755;BME280;2902;42.130;24.732;2023-05-11T07:30:56;100088.19;;;15.51;63.85
5755;BME280;2902;42.130;24.732;2023-05-11T07:33:23;100085.00;;;15.74;63.07
5755;BME280;2902;42.130;24.732;2023-05-11T07:35:50;100100.41;;;15.85;62.43
5755;BME280;2902;42.130;24.732;2023-05-11T07:38:17;100095.00;;;15.92;61.29
5755;BME280;2902;42.130;24.732;2023-05-11T07:40:43;100097.75;;;16.10;60.19
5755;BME280;2902;42.130;24.732;2023-05-11T07:43:10;100091.94;;;16.44;59.91
5755;BME280;2902;42.130;24.732;2023-05-11T07:45:38;100080.19;;;16.45;59.73
5755;BME280;2902;42.130;24.732;2023-05-11T07:48:05;100093.38;;;16.46;59.93
5755;BME280;2902;42.130;24.732;2023-05-11T07:50:32;100082.28;;;16.85;59.52
5755;BME280;2902;42.130;24.732;2023-05-11T07:52:59;100102.94;;;17.21;57.85
5755;BME280;2902;42.130;24.732;2023-05-11T07:55:25;100076.31;;;17.37;57.05
5755;BME280;2902;42.130;24.732;2023-05-11T07:57:55;100078.19;;;17.55;55.62
5755;BME280;2902;42.130;24.732;2023-05-11T08:00:21;100077.25;;;17.49;56.76
5755;BME280;2902;42.130;24.732;2023-05-11T08:02:50;100079.97;;;17.61;56.87
5755;BME280;2902;42.130;24.732;2023-05-11T08:05:17;100078.47;;;17.65;56.63
5755;BME280;2902;42.130;24.732;2023-05-11T08:07:44;100073.09;;;17.65;56.42
5755;BME280;2902;42.130;24.732;2023-05-11T08:10:11;100077.19;;;17.67;56.71
5755;BME280;2902;42.130;24.732;2023-05-11T08:12:38;100071.47;;;17.64;57.18
5755;BME280;2902;42.130;24.732;2023-05-11T08:15:06;100062.63;;;17.45;56.93
5755;BME280;2902;42.130;24.732;2023-05-11T08:17:33;100067.28;;;17.50;56.80
5755;BME280;2902;42.130;24.732;2023-05-11T08:20:01;100062.06;;;17.55;57.27
5755;BME280;2902;42.130;24.732;2023-05-11T08:22:28;100061.47;;;17.17;58.47
5755;BME280;2902;42.130;24.732;2023-05-11T08:24:55;100061.56;;;17.28;58.50
5755;BME280;2902;42.130;24.732;2023-05-11T08:27:21;100077.00;;;17.15;57.88
5755;BME280;2902;42.130;24.732;2023-05-11T08:29:49;100060.06;;;17.14;58.53
5755;BME280;2902;42.130;24.732;2023-05-11T08:32:16;100065.38;;;17.21;59.44
5755;BME280;2902;42.130;24.732;2023-05-11T08:34:42;100065.00;;;17.17;59.56
5755;BME280;2902;42.130;24.732;2023-05-11T08:37:11;100062.00;;;16.89;59.12
5755;BME280;2902;42.130;24.732;2023-05-11T08:39:37;100054.47;;;16.62;60.79
5755;BME280;2902;42.130;24.732;2023-05-11T08:42:04;100050.50;;;16.82;60.73
5755;BME280;2902;42.130;24.732;2023-05-11T08:44:32;100056.28;;;16.86;60.00
5755;BME280;2902;42.130;24.732;2023-05-11T08:47:02;100057.28;;;16.18;61.45
5755;BME280;2902;42.130;24.732;2023-05-11T08:49:30;100005.59;;;15.86;62.79
5755;BME280;2902;42.130;24.732;2023-05-11T08:51:56;100047.50;;;16.30;63.38
5755;BME280;2902;42.130;24.732;2023-05-11T08:54:25;100065.94;;;16.20;62.65
5755;BME280;2902;42.130;24.732;2023-05-11T08:56:52;100051.50;;;16.21;62.40
5755;BME280;2902;42.130;24.732;2023-05-11T08:59:19;100056.31;;;16.37;61.40
5755;BME280;2902;42.130;24.732;2023-05-11T09:01:46;100048.75;;;16.52;61.02
5755;BME280;2902;42.130;24.732;2023-05-11T09:04:14;100045.38;;;16.81;59.32
5755;BME280;2902;42.130;24.732;2023-05-11T09:06:42;100027.16;;;17.37;72.06
5755;BME280;2902;42.130;24.732;2023-05-11T09:09:09;100013.66;;;18.37;76.21
5755;BME280;2902;42.130;24.732;2023-05-11T09:11:38;100017.69;;;19.20;73.30
5755;BME280;2902;42.130;24.732;2023-05-11T09:14:05;100050.13;;;19.25;58.17
5755;BME280;2902;42.130;24.732;2023-05-11T09:16:31;100034.47;;;19.50;63.49
5755;BME280;2902;42.130;24.732;2023-05-11T09:18:59;100047.53;;;19.86;53.54
5755;BME280;2902;42.130;24.732;2023-05-11T09:21:29;100048.41;;;19.75;50.54
5755;BME280;2902;42.130;24.732;2023-05-11T09:23:56;100047.94;;;19.78;50.99
5755;BME280;2902;42.130;24.732;2023-05-11T09:26:25;100036.56;;;19.76;50.29
5755;BME280;2902;42.130;24.732;2023-05-11T09:28:56;100028.88;;;19.68;50.49
5755;BME280;2902;42.130;24.732;2023-05-11T09:31:33;100021.94;;;19.72;50.22
5755;BME280;2902;42.130;24.732;2023-05-11T09:34:14;100016.50;;;20.00;50.09
5755;BME280;2902;42.130;24.732;2023-05-11T09:36:42;100037.78;;;20.13;48.82
5755;BME280;2902;42.130;24.732;2023-05-11T09:39:09;100020.47;;;20.09;48.58
5755;BME280;2902;42.130;24.732;2023-05-11T09:41:36;100022.72;;;20.00;48.24
5755;BME280;2902;42.130;24.732;2023-05-11T09:44:08;100016.75;;;19.82;48.67
5755;BME280;2902;42.130;24.732;2023-05-11T09:46:36;100013.28;;;19.70;48.68
5755;BME280;2902;42.130;24.732;2023-05-11T09:49:04;100007.22;;;19.63;48.80
5755;BME280;2902;42.130;24.732;2023-05-11T09:51:32;100015.91;;;19.37;47.49
5755;BME280;2902;42.130;24.732;2023-05-11T09:54:00;100017.81;;;19.13;48.97
5755;BME280;2902;42.130;24.732;2023-05-11T09:56:53;100002.81;;;19.29;49.15
5755;BME280;2902;42.130;24.732;2023-05-11T09:59:38;99999.88;;;19.30;49.37
5755;BME280;2902;42.130;24.732;2023-05-11T10:02:19;100008.97;;;19.41;48.03
5755;BME280;2902;42.130;24.732;2023-05-11T10:04:46;100011.94;;;19.28;48.51
5755;BME280;2902;42.130;24.732;2023-05-11T10:07:22;100005.84;;;19.21;48.98
5755;BME280;2902;42.130;24.732;2023-05-11T10:09:50;99993.47;;;18.46;51.13
5755;BME280;2902;42.130;24.732;2023-05-11T10:12:20;99988.59;;;18.02;52.82
5755;BME280;2902;42.130;24.732;2023-05-11T10:14:50;99988.38;;;18.15;52.55
5755;BME280;2902;42.130;24.732;2023-05-11T10:17:17;99994.13;;;18.30;52.62
5755;BME280;2902;42.130;24.732;2023-05-11T10:19:45;99969.97;;;17.77;53.49
5755;BME280;2902;42.130;24.732;2023-05-11T10:22:14;99949.91;;;17.80;52.79
5755;BME280;2902;42.130;24.732;2023-05-11T10:24:40;99992.13;;;18.14;52.78
5755;BME280;2902;42.130;24.732;2023-05-11T10:27:08;99972.25;;;18.15;52.67
5755;BME280;2902;42.130;24.732;2023-05-11T10:29:36;99969.09;;;18.29;52.67
5755;BME280;2902;42.130;24.732;2023-05-11T10:32:05;99970.19;;;18.51;52.73
5755;BME280;2902;42.130;24.732;2023-05-11T10:34:32;99968.03;;;18.65;51.12
5755;BME280;2902;42.130;24.732;2023-05-11T10:37:00;99977.97;;;18.76;51.11
5755;BME280;2902;42.130;24.732;2023-05-11T10:39:27;99974.06;;;18.95;50.35
5755;BME280;2902;42.130;24.732;2023-05-11T10:42:08;99973.44;;;19.16;50.05
5755;BME280;2902;42.130;24.732;2023-05-11T10:44:59;99970.38;;;18.73;50.38
5755;BME280;2902;42.130;24.732;2023-05-11T10:50:46;99968.97;;;19.10;49.62
5755;BME280;2902;42.130;24.732;2023-05-11T10:53:37;99952.53;;;19.23;50.23
5755;BME280;2902;42.130;24.732;2023-05-11T10:56:18;99966.94;;;19.28;48.54
5755;BME280;2902;42.130;24.732;2023-05-11T10:58:58;99967.06;;;19.33;48.25
5755;BME280;2902;42.130;24.732;2023-05-11T11:01:36;99965.63;;;19.59;46.79
5755;BME280;2902;42.130;24.732;2023-05-11T11:04:04;99968.34;;;19.59;45.92
5755;BME280;2902;42.130;24.732;2023-05-11T11:06:34;99954.22;;;19.24;48.26
5755;BME280;2902;42.130;24.732;2023-05-11T11:09:02;99962.38;;;19.57;47.56
5755;BME280;2902;42.130;24.732;2023-05-11T11:11:36;99955.84;;;19.53;48.20
5755;BME280;2902;42.130;24.732;2023-05-11T11:14:03;99962.22;;;19.80;47.61
5755;BME280;2902;42.130;24.732;2023-05-11T11:16:31;99952.78;;;19.94;46.92
5755;BME280;2902;42.130;24.732;2023-05-11T11:19:34;99961.13;;;20.09;45.76
5755;BME280;2902;42.130;24.732;2023-05-11T11:22:03;99960.47;;;20.18;44.93
5755;BME280;2902;42.130;24.732;2023-05-11T11:24:42;99933.09;;;20.10;45.23
5755;BME280;2902;42.130;24.732;2023-05-11T11:27:09;99938.41;;;20.05;45.71
5755;BME280;2902;42.130;24.732;2023-05-11T11:29:37;99940.50;;;20.03;45.61
5755;BME280;2902;42.130;24.732;2023-05-11T11:32:27;99934.84;;;19.88;45.79
5755;BME280;2902;42.130;24.732;2023-05-11T11:34:54;99927.44;;;19.95;45.58
5755;BME280;2902;42.130;24.732;2023-05-11T11:37:22;99928.59;;;19.38;47.14
5755;BME280;2902;42.130;24.732;2023-05-11T11:39:50;99921.84;;;18.96;48.38
5755;BME280;2902;42.130;24.732;2023-05-11T11:42:32;99922.88;;;18.67;49.16
5755;BME280;2902;42.130;24.732;2023-05-11T11:45:25;99924.03;;;19.10;48.03
5755;BME280;2902;42.130;24.732;2023-05-11T11:48:09;99858.47;;;19.05;46.95
5755;BME280;2902;42.130;24.732;2023-05-11T11:50:38;99929.88;;;19.63;46.99
5755;BME280;2902;42.130;24.732;2023-05-11T11:55:55;99913.88;;;19.73;45.35
5755;BME280;2902;42.130;24.732;2023-05-11T11:58:56;99908.16;;;19.70;45.67
5755;BME280;2902;42.130;24.732;2023-05-11T12:01:25;99902.59;;;19.93;45.47
5755;BME280;2902;42.130;24.732;2023-05-11T12:06:55;99895.91;;;19.95;44.87
5755;BME280;2902;42.130;24.732;2023-05-11T12:09:25;99888.06;;;19.94;45.37
5755;BME280;2902;42.130;24.732;2023-05-11T12:11:52;99893.09;;;20.07;45.31
5755;BME280;2902;42.130;24.732;2023-05-11T12:14:20;99893.78;;;20.14;45.63
5755;BME280;2902;42.130;24.732;2023-05-11T12:17:01;99878.88;;;19.95;45.52
5755;BME280;2902;42.130;24.732;2023-05-11T12:19:28;99878.88;;;19.95;46.37
5755;BME280;2902;42.130;24.732;2023-05-11T12:21:55;99867.03;;;19.96;45.18
5755;BME280;2902;42.130;24.732;2023-05-11T12:24:24;99871.38;;;19.97;44.83
5755;BME280;2902;42.130;24.732;2023-05-11T12:26:54;99878.91;;;19.78;45.29
5755;BME280;2902;42.130;24.732;2023-05-11T12:29:21;99870.00;;;19.78;44.14
5755;BME280;2902;42.130;24.732;2023-05-11T12:31:48;99861.09;;;19.94;44.54
5755;BME280;2902;42.130;24.732;2023-05-11T12:34:15;99865.47;;;20.00;44.74
5755;BME280;2902;42.130;24.732;2023-05-11T12:36:43;99855.34;;;20.07;44.02
5755;BME280;2902;42.130;24.732;2023-05-11T12:39:15;99860.28;;;20.10;43.60
5755;BME280;2902;42.130;24.732;2023-05-11T12:41:44;99852.00;;;20.00;44.40
5755;BME280;2902;42.130;24.732;2023-05-11T12:44:10;99844.09;;;20.10;43.97
5755;BME280;2902;42.130;24.732;2023-05-11T12:46:37;99848.47;;;20.16;44.02
5755;BME280;2902;42.130;24.732;2023-05-11T12:49:04;99822.56;;;20.15;44.08
5755;BME280;2902;42.130;24.732;2023-05-11T12:51:45;99836.88;;;19.99;44.34
5755;BME280;2902;42.130;24.732;2023-05-11T12:54:12;99820.34;;;19.74;43.54
5755;BME280;2902;42.130;24.732;2023-05-11T12:56:50;99831.13;;;19.57;43.67
5755;BME280;2902;42.130;24.732;2023-05-11T12:59:31;99810.97;;;19.60;43.11
5755;BME280;2902;42.130;24.732;2023-05-11T13:02:08;99822.38;;;19.83;42.84
5755;BME280;2902;42.130;24.732;2023-05-11T13:04:38;99831.97;;;19.96;42.92
5755;BME280;2902;42.130;24.732;2023-05-11T13:07:05;99822.91;;;20.02;42.80
5755;BME280;2902;42.130;24.732;2023-05-11T13:09:32;99842.22;;;19.94;43.35
5755;BME280;2902;42.130;24.732;2023-05-11T13:12:17;99826.91;;;19.17;45.47
5755;BME280;2902;42.130;24.732;2023-05-11T13:14:46;99821.72;;;19.27;45.31
5755;BME280;2902;42.130;24.732;2023-05-11T13:17:27;99797.78;;;19.14;45.43
5755;BME280;2902;42.130;24.732;2023-05-11T13:19:55;99800.06;;;19.22;45.80
5755;BME280;2902;42.130;24.732;2023-05-11T13:22:22;99792.00;;;19.22;45.45
5755;BME280;2902;42.130;24.732;2023-05-11T13:25:00;99807.97;;;19.40;44.99